sensor_id;sensor_type;location;lat;lon;timestamp;P1;durP1;ratioP1;P2;durP2;ratioP2
61338;SDS011;47213;52.362;4.606;2022-10-16T00:22:38;5.10;;;1.50;;
61338;SDS011;47213;52.362;4.606;2022-10-16T00:32:38;4.70;;;1.30;;
61338;SDS011;47213;52.362;4.606;2022-10-16T00:42:39;4.40;;;1.40;;
61338;SDS011;47213;52.362;4.606;2022-10-16T00:52:41;4.90;;;1.30;;
61338;SDS011;47213;52.362;4.606;2022-10-16T01:02:39;4.30;;;1.40;;
61338;SDS011;47213;52.362;4.606;2022-10-16T01:07:43;4.30;;;1.40;;
61338;SDS011;47213;52.362;4.606;2022-10-16T01:12:51;4.80;;;1.40;;
61338;SDS011;47213;52.362;4.606;2022-10-16T01:32:42;4.70;;;1.40;;
61338;SDS011;47213;52.362;4.606;2022-10-16T01:37:42;4.70;;;1.40;;
61338;SDS011;47213;52.362;4.606;2022-10-16T02:02:41;5.00;;;1.50;;
61338;SDS011;47213;52.362;4.606;2022-10-16T02:12:42;4.20;;;1.40;;
61338;SDS011;47213;52.362;4.606;2022-10-16T02:17:39;4.20;;;1.40;;
61338;SDS011;47213;52.362;4.606;2022-10-16T02:22:43;4.40;;;1.30;;
61338;SDS011;47213;52.362;4.606;2022-10-16T02:37:40;7.70;;;1.70;;
61338;SDS011;47213;52.362;4.606;2022-10-16T02:42:40;5.00;;;1.40;;
61338;SDS011;47213;52.362;4.606;2022-10-16T02:47:39;5.00;;;1.40;;
61338;SDS011;47213;52.362;4.606;2022-10-16T02:52:39;5.50;;;1.40;;
61338;SDS011;47213;52.362;4.606;2022-10-16T03:07:39;4.20;;;1.40;;
61338;SDS011;47213;52.362;4.606;2022-10-16T03:12:39;5.20;;;1.70;;
61338;SDS011;47213;52.362;4.606;2022-10-16T03:17:39;5.20;;;1.70;;
61338;SDS011;47213;52.362;4.606;2022-10-16T03:22:39;5.30;;;1.70;;
61338;SDS011;47213;52.362;4.606;2022-10-16T03:37:39;5.60;;;1.90;;
61338;SDS011;47213;52.362;4.606;2022-10-16T03:42:39;7.10;;;1.90;;
61338;SDS011;47213;52.362;4.606;2022-10-16T03:47:39;7.10;;;1.90;;
61338;SDS011;47213;52.362;4.606;2022-10-16T03:52:39;4.40;;;1.80;;
61338;SDS011;47213;52.362;4.606;2022-10-16T03:57:39;4.40;;;1.80;;
61338;SDS011;47213;52.362;4.606;2022-10-16T04:07:39;5.60;;;2.00;;
61338;SDS011;47213;52.362;4.606;2022-10-16T04:12:39;8.20;;;2.00;;
61338;SDS011;47213;52.362;4.606;2022-10-16T04:22:39;5.00;;;1.70;;
61338;SDS011;47213;52.362;4.606;2022-10-16T04:32:40;7.90;;;1.80;;
61338;SDS011;47213;52.362;4.606;2022-10-16T04:37:39;7.90;;;1.80;;
61338;SDS011;47213;52.362;4.606;2022-10-16T04:42:39;9.10;;;1.60;;
61338;SDS011;47213;52.362;4.606;2022-10-16T04:52:39;6.70;;;1.80;;
61338;SDS011;47213;52.362;4.606;2022-10-16T04:57:40;6.70;;;1.80;;
61338;SDS011;47213;52.362;4.606;2022-10-16T05:02:39;6.10;;;1.60;;
61338;SDS011;47213;52.362;4.606;2022-10-16T05:07:39;6.10;;;1.60;;
61338;SDS011;47213;52.362;4.606;2022-10-16T05:22:39;5.00;;;1.50;;
61338;SDS011;47213;52.362;4.606;2022-10-16T05:27:39;5.00;;;1.50;;
61338;SDS011;47213;52.362;4.606;2022-10-16T05:32:39;8.40;;;1.80;;
61338;SDS011;47213;52.362;4.606;2022-10-16T05:37:39;8.40;;;1.80;;
61338;SDS011;47213;52.362;4.606;2022-10-16T05:47:39;6.00;;;2.00;;
61338;SDS011;47213;52.362;4.606;2022-10-16T05:52:39;6.60;;;2.00;;
61338;SDS011;47213;52.362;4.606;2022-10-16T06:02:39;6.50;;;1.80;;
61338;SDS011;47213;52.362;4.606;2022-10-16T06:07:39;6.50;;;1.80;;
61338;SDS011;47213;52.362;4.606;2022-10-16T06:17:39;4.80;;;1.70;;
61338;SDS011;47213;52.362;4.606;2022-10-16T06:22:39;5.10;;;1.90;;
61338;SDS011;47213;52.362;4.606;2022-10-16T06:27:40;5.10;;;1.90;;
61338;SDS011;47213;52.362;4.606;2022-10-16T06:37:39;7.20;;;2.00;;
61338;SDS011;47213;52.362;4.606;2022-10-16T06:42:40;8.30;;;2.40;;
61338;SDS011;47213;52.362;4.606;2022-10-16T06:52:39;7.70;;;2.20;;
61338;SDS011;47213;52.362;4.606;2022-10-16T06:57:40;7.70;;;2.20;;
61338;SDS011;47213;52.362;4.606;2022-10-16T07:02:39;6.50;;;2.40;;
61338;SDS011;47213;52.362;4.606;2022-10-16T07:07:40;6.50;;;2.40;;
61338;SDS011;47213;52.362;4.606;2022-10-16T07:17:40;7.20;;;2.20;;
61338;SDS011;47213;52.362;4.606;2022-10-16T07:22:40;9.60;;;2.40;;
61338;SDS011;47213;52.362;4.606;2022-10-16T07:27:40;9.60;;;2.40;;
61338;SDS011;47213;52.362;4.606;2022-10-16T07:32:40;7.00;;;1.80;;
61338;SDS011;47213;52.362;4.606;2022-10-16T07:37:44;7.00;;;1.80;;
61338;SDS011;47213;52.362;4.606;2022-10-16T07:47:40;9.00;;;2.10;;
61338;SDS011;47213;52.362;4.606;2022-10-16T07:52:40;9.70;;;2.00;;
61338;SDS011;47213;52.362;4.606;2022-10-16T07:57:40;9.70;;;2.00;;
61338;SDS011;47213;52.362;4.606;2022-10-16T08:02:40;12.30;;;2.40;;
61338;SDS011;47213;52.362;4.606;2022-10-16T08:07:40;12.30;;;2.40;;
61338;SDS011;47213;52.362;4.606;2022-10-16T08:12:40;13.00;;;2.40;;
61338;SDS011;47213;52.362;4.606;2022-10-16T08:27:40;13.70;;;2.50;;
61338;SDS011;47213;52.362;4.606;2022-10-16T08:32:40;11.60;;;2.20;;
61338;SDS011;47213;52.362;4.606;2022-10-16T08:37:40;11.60;;;2.20;;
61338;SDS011;47213;52.362;4.606;2022-10-16T08:42:47;10.10;;;2.40;;
61338;SDS011;47213;52.362;4.606;2022-10-16T08:47:43;10.10;;;2.40;;
61338;SDS011;47213;52.362;4.606;2022-10-16T08:52:42;14.50;;;2.60;;
61338;SDS011;47213;52.362;4.606;2022-10-16T08:57:40;14.50;;;2.60;;
61338;SDS011;47213;52.362;4.606;2022-10-16T09:02:52;15.20;;;2.40;;
61338;SDS011;47213;52.362;4.606;2022-10-16T09:22:40;14.30;;;2.20;;
61338;SDS011;47213;52.362;4.606;2022-10-16T09:27:40;14.30;;;2.20;;
61338;SDS011;47213;52.362;4.606;2022-10-16T09:37:42;15.30;;;2.30;;
61338;SDS011;47213;52.362;4.606;2022-10-16T09:42:40;11.80;;;2.10;;
61338;SDS011;47213;52.362;4.606;2022-10-16T09:47:41;11.80;;;2.10;;
61338;SDS011;47213;52.362;4.606;2022-10-16T09:52:40;12.40;;;2.30;;
61338;SDS011;47213;52.362;4.606;2022-10-16T09:57:51;12.40;;;2.30;;
61338;SDS011;47213;52.362;4.606;2022-10-16T10:07:43;13.40;;;1.90;;
61338;SDS011;47213;52.362;4.606;2022-10-16T10:12:40;12.70;;;1.90;;
61338;SDS011;47213;52.362;4.606;2022-10-16T10:17:49;12.70;;;1.90;;
61338;SDS011;47213;52.362;4.606;2022-10-16T10:22:42;9.00;;;1.80;;
61338;SDS011;47213;52.362;4.606;2022-10-16T10:27:50;9.00;;;1.80;;
61338;SDS011;47213;52.362;4.606;2022-10-16T10:32:53;10.50;;;1.70;;
61338;SDS011;47213;52.362;4.606;2022-10-16T10:42:47;14.10;;;1.80;;
61338;SDS011;47213;52.362;4.606;2022-10-16T10:47:52;14.10;;;1.80;;
61338;SDS011;47213;52.362;4.606;2022-10-16T11:02:51;8.70;;;1.50;;
61338;SDS011;47213;52.362;4.606;2022-10-16T11:07:47;8.70;;;1.50;;
61338;SDS011;47213;52.362;4.606;2022-10-16T11:12:44;12.90;;;1.50;;
61338;SDS011;47213;52.362;4.606;2022-10-16T11:17:45;12.90;;;1.50;;
61338;SDS011;47213;52.362;4.606;2022-10-16T11:22:44;8.80;;;1.40;;
61338;SDS011;47213;52.362;4.606;2022-10-16T11:27:44;8.80;;;1.40;;
61338;SDS011;47213;52.362;4.606;2022-10-16T11:37:42;8.80;;;1.50;;
61338;SDS011;47213;52.362;4.606;2022-10-16T11:42:46;9.00;;;1.50;;
61338;SDS011;47213;52.362;4.606;2022-10-16T11:47:43;9.00;;;1.50;;
61338;SDS011;47213;52.362;4.606;2022-10-16T11:52:44;9.40;;;1.30;;
61338;SDS011;47213;52.362;4.606;2022-10-16T12:02:49;7.90;;;1.20;;
61338;SDS011;47213;52.362;4.606;2022-10-16T12:07:47;7.90;;;1.20;;
61338;SDS011;47213;52.362;4.606;2022-10-16T12:12:40;8.30;;;1.30;;
61338;SDS011;47213;52.362;4.606;2022-10-16T12:17:40;8.30;;;1.30;;
61338;SDS011;47213;52.362;4.606;2022-10-16T12:22:47;9.20;;;1.50;;
61338;SDS011;47213;52.362;4.606;2022-10-16T12:27:41;9.20;;;1.50;;
61338;SDS011;47213;52.362;4.606;2022-10-16T12:32:40;9.10;;;1.30;;
61338;SDS011;47213;52.362;4.606;2022-10-16T12:37:40;9.10;;;1.30;;
61338;SDS011;47213;52.362;4.606;2022-10-16T12:42:40;9.00;;;1.20;;
61338;SDS011;47213;52.362;4.606;2022-10-16T12:47:50;9.00;;;1.20;;
61338;SDS011;47213;52.362;4.606;2022-10-16T12:52:40;9.40;;;1.40;;
61338;SDS011;47213;52.362;4.606;2022-10-16T12:57:57;9.40;;;1.40;;
61338;SDS011;47213;52.362;4.606;2022-10-16T13:17:45;9.80;;;1.70;;
61338;SDS011;47213;52.362;4.606;2022-10-16T13:22:51;11.00;;;1.80;;
61338;SDS011;47213;52.362;4.606;2022-10-16T13:27:55;11.00;;;1.80;;
61338;SDS011;47213;52.362;4.606;2022-10-16T13:32:44;11.80;;;1.90;;
61338;SDS011;47213;52.362;4.606;2022-10-16T13:37:41;11.80;;;1.90;;
61338;SDS011;47213;52.362;4.606;2022-10-16T13:42:41;11.50;;;1.60;;
61338;SDS011;47213;52.362;4.606;2022-10-16T13:47:41;11.50;;;1.60;;
61338;SDS011;47213;52.362;4.606;2022-10-16T13:52:41;9.20;;;1.80;;
61338;SDS011;47213;52.362;4.606;2022-10-16T13:57:41;9.20;;;1.80;;
61338;SDS011;47213;52.362;4.606;2022-10-16T14:02:41;13.20;;;2.10;;
61338;SDS011;47213;52.362;4.606;2022-10-16T14:07:41;13.20;;;2.10;;
61338;SDS011;47213;52.362;4.606;2022-10-16T14:12:41;11.60;;;1.90;;
61338;SDS011;47213;52.362;4.606;2022-10-16T14:17:43;11.60;;;1.90;;
61338;SDS011;47213;52.362;4.606;2022-10-16T14:22:41;11.70;;;1.90;;
61338;SDS011;47213;52.362;4.606;2022-10-16T14:27:41;11.70;;;1.90;;
61338;SDS011;47213;52.362;4.606;2022-10-16T14:32:42;11.60;;;2.10;;
61338;SDS011;47213;52.362;4.606;2022-10-16T14:42:43;13.20;;;1.90;;
61338;SDS011;47213;52.362;4.606;2022-10-16T14:47:48;13.20;;;1.90;;
61338;SDS011;47213;52.362;4.606;2022-10-16T14:52:41;11.00;;;2.50;;
61338;SDS011;47213;52.362;4.606;2022-10-16T14:57:42;11.00;;;2.50;;
61338;SDS011;47213;52.362;4.606;2022-10-16T15:02:41;13.00;;;2.10;;
61338;SDS011;47213;52.362;4.606;2022-10-16T15:07:41;13.00;;;2.10;;
61338;SDS011;47213;52.362;4.606;2022-10-16T15:12:41;15.20;;;2.40;;
61338;SDS011;47213;52.362;4.606;2022-10-16T15:17:41;15.20;;;2.40;;
61338;SDS011;47213;52.362;4.606;2022-10-16T15:22:41;13.40;;;2.50;;
61338;SDS011;47213;52.362;4.606;2022-10-16T15:27:41;13.40;;;2.50;;
61338;SDS011;47213;52.362;4.606;2022-10-16T15:32:41;10.60;;;2.20;;
61338;SDS011;47213;52.362;4.606;2022-10-16T15:37:41;10.60;;;2.20;;
61338;SDS011;47213;52.362;4.606;2022-10-16T15:47:42;10.90;;;2.00;;
61338;SDS011;47213;52.362;4.606;2022-10-16T16:02:42;14.90;;;3.10;;
61338;SDS011;47213;52.362;4.606;2022-10-16T16:17:41;12.50;;;2.70;;
61338;SDS011;47213;52.362;4.606;2022-10-16T16:22:41;12.10;;;2.90;;
61338;SDS011;47213;52.362;4.606;2022-10-16T16:32:41;12.20;;;2.80;;
61338;SDS011;47213;52.362;4.606;2022-10-16T16:37:41;12.20;;;2.80;;
61338;SDS011;47213;52.362;4.606;2022-10-16T16:42:41;11.30;;;2.90;;
61338;SDS011;47213;52.362;4.606;2022-10-16T16:47:41;11.30;;;2.90;;
61338;SDS011;47213;52.362;4.606;2022-10-16T16:52:41;12.00;;;3.50;;
61338;SDS011;47213;52.362;4.606;2022-10-16T16:57:41;12.00;;;3.50;;
61338;SDS011;47213;52.362;4.606;2022-10-16T17:02:41;13.00;;;4.00;;
61338;SDS011;47213;52.362;4.606;2022-10-16T17:07:41;13.00;;;4.00;;
61338;SDS011;47213;52.362;4.606;2022-10-16T17:12:41;15.40;;;5.80;;
61338;SDS011;47213;52.362;4.606;2022-10-16T17:17:41;15.40;;;5.80;;
61338;SDS011;47213;52.362;4.606;2022-10-16T17:32:41;17.80;;;8.20;;
61338;SDS011;47213;52.362;4.606;2022-10-16T17:37:41;17.80;;;8.20;;
61338;SDS011;47213;52.362;4.606;2022-10-16T17:52:41;16.40;;;8.00;;
61338;SDS011;47213;52.362;4.606;2022-10-16T17:57:41;16.40;;;8.00;;
61338;SDS011;47213;52.362;4.606;2022-10-16T18:02:41;20.90;;;7.90;;
61338;SDS011;47213;52.362;4.606;2022-10-16T18:07:41;20.90;;;7.90;;
61338;SDS011;47213;52.362;4.606;2022-10-16T18:12:41;18.90;;;9.40;;
61338;SDS011;47213;52.362;4.606;2022-10-16T18:17:42;18.90;;;9.40;;
61338;SDS011;47213;52.362;4.606;2022-10-16T18:32:41;17.70;;;9.60;;
61338;SDS011;47213;52.362;4.606;2022-10-16T18:37:41;17.70;;;9.60;;
61338;SDS011;47213;52.362;4.606;2022-10-16T18:42:41;21.00;;;10.20;;
61338;SDS011;47213;52.362;4.606;2022-10-16T18:47:41;21.00;;;10.20;;
61338;SDS011;47213;52.362;4.606;2022-10-16T18:52:49;20.50;;;8.40;;
61338;SDS011;47213;52.362;4.606;2022-10-16T18:57:41;20.50;;;8.40;;
61338;SDS011;47213;52.362;4.606;2022-10-16T19:07:44;18.40;;;6.40;;
61338;SDS011;47213;52.362;4.606;2022-10-16T19:12:41;15.60;;;5.60;;
61338;SDS011;47213;52.362;4.606;2022-10-16T19:17:41;15.60;;;5.60;;
61338;SDS011;47213;52.362;4.606;2022-10-16T19:22:41;14.70;;;5.20;;
61338;SDS011;47213;52.362;4.606;2022-10-16T19:32:42;17.50;;;5.60;;
61338;SDS011;47213;52.362;4.606;2022-10-16T19:42:42;12.70;;;4.40;;
61338;SDS011;47213;52.362;4.606;2022-10-16T20:02:42;14.60;;;3.90;;
61338;SDS011;47213;52.362;4.606;2022-10-16T20:17:42;12.60;;;3.50;;
61338;SDS011;47213;52.362;4.606;2022-10-16T20:22:42;11.10;;;3.50;;
61338;SDS011;47213;52.362;4.606;2022-10-16T20:27:42;11.10;;;3.50;;
61338;SDS011;47213;52.362;4.606;2022-10-16T20:37:42;12.00;;;3.40;;
61338;SDS011;47213;52.362;4.606;2022-10-16T20:42:42;14.80;;;4.20;;
61338;SDS011;47213;52.362;4.606;2022-10-16T20:47:42;14.80;;;4.20;;
61338;SDS011;47213;52.362;4.606;2022-10-16T20:52:42;15.20;;;4.40;;
61338;SDS011;47213;52.362;4.606;2022-10-16T21:12:42;13.10;;;4.40;;
61338;SDS011;47213;52.362;4.606;2022-10-16T21:22:42;13.20;;;4.30;;
61338;SDS011;47213;52.362;4.606;2022-10-16T21:27:42;13.20;;;4.30;;
61338;SDS011;47213;52.362;4.606;2022-10-16T21:57:42;11.90;;;4.10;;
61338;SDS011;47213;52.362;4.606;2022-10-16T22:02:42;15.10;;;5.20;;
61338;SDS011;47213;52.362;4.606;2022-10-16T22:22:42;11.80;;;4.80;;
61338;SDS011;47213;52.362;4.606;2022-10-16T22:27:42;11.80;;;4.80;;
61338;SDS011;47213;52.362;4.606;2022-10-16T22:47:42;10.40;;;5.20;;
61338;SDS011;47213;52.362;4.606;2022-10-16T22:52:42;11.60;;;5.30;;
61338;SDS011;47213;52.362;4.606;2022-10-16T22:57:42;11.60;;;5.30;;
61338;SDS011;47213;52.362;4.606;2022-10-16T23:02:42;11.00;;;4.70;;
61338;SDS011;47213;52.362;4.606;2022-10-16T23:07:42;11.00;;;4.70;;
61338;SDS011;47213;52.362;4.606;2022-10-16T23:22:42;10.40;;;5.00;;
61338;SDS011;47213;52.362;4.606;2022-10-16T23:42:42;11.00;;;5.40;;
61338;SDS011;47213;52.362;4.606;2022-10-16T23:47:42;11.00;;;5.40;;
61338;SDS011;47213;52.362;4.606;2022-10-16T23:52:42;13.00;;;5.40;;
